Nearby METAR Reports

 

LEAL - Alicante/El Alte, Spain
Distance from station: SO 52km
Actualización: 19/11/2018 14:00
Lluvia débil, Muy nuboso
Lluvia débil, Muy nuboso
 Viento del ONO
Viento: ONO 22 km/h
Temperatura: 15°C
Rocío: 12°C
Humedad: 82%
Barómetro: 998 hPa
Resumen: Lluvia débil
Clouds: Muy nuboso
Visibility: 10 km
Cloud details: Few Clouds 914 m
Muy nuboso 2012 m
2018/11/19 13:00 LEAL 191300Z 29012KT 260V320 9999 -RA FEW030 BKN066 15/12 Q0998 TEMPO 4000 SHRA FEW020CB
LEVC - Valencia (civ/Mi, Spain
Distance from station: NNO 107km
Actualización: 19/11/2018 14:00
Parcialmente nuboso
Parcialmente nuboso
 Viento del NNO
Viento: NNO 15 km/h
Temperatura: 14°C
Rocío: 12°C
Humedad: 88%
Barómetro: 1000 hPa
Clouds: Parcialmente nuboso
Visibility: 10 km
Cloud details: Few Clouds 1067 m
Parcialmente nuboso 1372 m
2018/11/19 13:00 LEVC 191300Z 34008KT 9999 FEW035TCU SCT045 14/12 Q1000 TEMPO 4000 SHRA
 
LELC - San Javier(Mil/C, Spain
Distance from station: SO 109km
Actualización: 19/11/2018 14:00
Few Clouds
Few Clouds
 Viento del ONO
Viento: ONO 15 km/h
Temperatura: 16°C
Rocío: 13°C
Humedad: 83%
Barómetro: 999 hPa
Clouds: Few Clouds
Visibility: 10 km
Cloud details: Few Clouds 1524 m
2018/11/19 13:00 LELC 191300Z 29008KT 260V320 9999 FEW050 16/13 Q0999 NOSIG
LERI - Alcantarilla(Sp-, Spain
Distance from station: SO 120km
Actualización: 19/11/2018 14:00
Muy nuboso
Muy nuboso
 Viento del ONO
Viento: ONO 17 km/h
Temperatura: 16°C
Rocío: 11°C
Humedad: 72%
Barómetro: 999 hPa
Clouds: Muy nuboso
Visibility: 10 km
Cloud details: Few Clouds 762 m
Muy nuboso 1829 m
2018/11/19 13:00 LERI 191300Z 30009KT 270V340 9999 FEW025 BKN060 16/11 Q0999 NOSIG
 
LEIB - Ibiza/Es Codola, Spain
Distance from station: ENE 131km
Actualización: 19/11/2018 14:00
Lluvia débil, Muy nuboso
Lluvia débil, Muy nuboso
 Viento del NE
Viento: NE 20 km/h
Temperatura: 14°C
Rocío: 13°C
Humedad: 94%
Barómetro: 996 hPa
Resumen: Lluvia débil
Clouds: Muy nuboso
Visibility: 6 km
Cloud details: Few Clouds 274 m
Muy nuboso 914 m
2018/11/19 13:00 LEIB 191300Z 04011KT 6000 -RA FEW009 BKN030 14/13 Q0996 NOSIG
LEAB - Albacete (civ/Mi, Spain
Distance from station: ONO 157km
Actualización: 19/11/2018 14:00
Parcialmente nuboso
Parcialmente nuboso
 Viento del NO
Viento: NO 11 km/h
Temperatura: 12°C
Rocío: 7°C
Humedad: 72%
Barómetro: 1001 hPa
Clouds: Parcialmente nuboso
Visibility: 10 km
Cloud details: Few Clouds 518 m
Parcialmente nuboso 914 m
2018/11/19 13:00 LEAB 191300Z 32006KT 9999 FEW017 SCT030 12/07 Q1001 NOSIG